Boulevard West (444, 445, 6931) Station Data

Red Flag Warning: No
Fire Weather Zone: 258
SDGE Region: Mountain Empire
Lat/Lon: 32.662/-116.289

Observations

Time Wind Speed/Gust Temp(F) RH Fuel Moist Fuel Temp(F) Dewpt(F) Tmax(F) Tmin(F) Accum Precip 10-min Precip SL Press(mb)
5/24 8:20am 249 14 G 24 70° 28% - - 36° 72.6° 59.7° - - -
5/24 8:10am 250 11 G 18 70° 30% - - 37° 72.6° 59.7° - - -
5/24 8:00am 249 10 G 17 70° 29% - - 36° 72.6° 59.7° - - -
5/24 7:50am 240 10 G 16 70° 26% - - 34° 72.6° 59.7° - - -
5/24 7:40am 229 11 G 18 70° 25% - - 33° 72.6° 59.7° - - -
5/24 7:30am 229 10 G 19 71° 20% - - 28° 72.6° 59.7° - - -
5/24 7:20am 238 10 G 15 72° 15% - - 22° 72.6° 59.7° - - -
5/24 7:10am 234 8 G 14 72° 14% - - 19° 72.2° 59.7° - - -
5/24 7:00am 269 9 G 14 72° 12% - - 17° 71.9° 59.7° - - -
5/24 6:50am 264 9 G 13 71° 12% - - 16° 71.3° 59.7° - - -
5/24 6:40am 267 10 G 13 70° 14% - - 18° 70.4° 59.7° - - -
5/24 6:30am 266 10 G 14 69° 16% - - 21° 70.1° 59.7° - - -
5/24 6:20am 269 11 G 17 68° 18% - - 23° 70.1° 59.7° - - -
5/24 6:10am 270 13 G 17 67° 21% - - 26° 70.1° 59.7° - - -
5/24 6:00am 273 12 G 17 67° 23% - - 28° 70.1° 59.7° - - -
5/24 5:50am 267 9 G 14 66° 26% - - 30° 70.1° 59.7° - - -
5/24 5:40am 256 6 G 10 65° 30% - - 32° 70.1° 59.7° - - -
5/24 5:30am 247 4 G 8 64° 35% - - 36° 70.1° 59.7° - - -
5/24 5:20am 252 5 G 9 63° 42% - - 39° 70.1° 59.7° - - -
5/24 5:10am 257 5 G 9 62° 46% - - 41° 70.1° 59.7° - - -
5/24 5:00am 248 2 G 6 62° 45% - - 41° 70.1° 59.7° - - -
5/24 4:50am 28 2 G 4 62° 45% - - 41° 70.1° 59.7° - - -
5/24 4:40am 275 4 G 9 63° 43% - - 40° 70.1° 59.7° - - -
5/24 4:30am 272 4 G 10 63° 44% - - 41° 70.1° 59.7° - - -
5/24 4:20am 104 1 G 3 63° 47% - - 42° 70.1° 59.7° - - -
5/24 4:10am 145 2 G 4 63° 49% - - 43° 70.1° 59.7° - - -
5/24 4:00am 138 2 G 4 63° 49% - - 44° 70.1° 59.7° - - -
5/24 3:50am 82 3 G 7 64° 49% - - 44° 70.1° 59.7° - - -
5/24 3:40am 229 5 G 12 65° 46% - - 43° 70.1° 59.7° - - -
5/24 3:30am 236 10 G 14 64° 52% - - 46° 70.1° 59.7° - - -
5/24 3:20am 236 9 G 14 61° 57% - - 46° 70.1° 59.7° - - -
5/24 3:10am 219 4 G 7 61° 58% - - 46° 70.1° 59.7° - - -
5/24 3:00am 194 6 G 9 61° 58% - - 46° 70.1° 60.6° - - -
5/24 2:50am 193 6 G 11 61° 58% - - 46° 70.1° 60.6° - - -
5/24 2:40am 176 6 G 11 61° 54% - - 45° 70.1° 60.6° - - -
5/24 2:30am 175 4 G 6 61° 52% - - 44° 70.1° 60.6° - - -
5/24 2:20am 169 5 G 7 61° 54% - - 44° 70.1° 60.6° - - -
5/24 2:10am 207 2 G 6 62° 52% - - 44° 70.1° 60.7° - - -
5/24 2:00am 235 8 G 11 64° 42% - - 41° 70.1° 62.9° - - -
5/24 1:50am 242 10 G 13 65° 44% - - 43° 70.1° 62.9° - - -
5/24 1:40am 252 11 G 14 65° 50% - - 46° 70.1° 62.9° - - -
5/24 1:30am 256 11 G 14 64° 56% - - 48° 70.1° 62.9° - - -
5/24 1:20am 259 11 G 14 63° 60% - - 49° 70.1° 62.9° - - -
5/24 1:10am 261 12 G 14 63° 60% - - 49° 70.1° 63° - - -
5/24 1:00am 260 11 G 14 64° 59% - - 49° 70.1° 63.3° - - -
5/24 12:50am 260 12 G 16 64° 57% - - 49° 70.1° 63.9° - - -
5/24 12:40am 259 12 G 16 66° 52% - - 48° 70.1° 64.8° - - -
5/24 12:30am 255 12 G 16 67° 47% - - 46° 70.1° 66.2° - - -
5/24 12:20am 248 14 G 19 69° 39% - - 43° 70.1° 67.9° - - -
5/24 12:10am 245 15 G 18 70° 33% - - 39° 70.1° 69° - - -
5/24 12:00am 248 13 G 17 70° 30% - - 37° 92.3° 64.2° - - -
5/23 11:50pm 251 12 G 14 70° 29% - - 36° 92.3° 64.2° - - -
5/23 11:40pm 252 12 G 17 70° 31% - - 38° 92.3° 64.2° - - -
5/23 11:30pm 255 11 G 15 70° 31% - - 38° 92.3° 64.2° - - -
5/23 11:20pm 260 7 G 10 70° 27% - - 35° 92.3° 64.2° - - -
5/23 11:10pm 257 6 G 8 69° 32% - - 38° 92.3° 64.2° - - -
5/23 11:00pm 251 7 G 10 70° 34% - - 40° 92.3° 64.2° - - -
5/23 10:50pm 259 7 G 11 69° 38% - - 43° 92.3° 64.2° - - -
5/23 10:40pm 261 9 G 13 69° 41% - - 44° 92.3° 64.2° - - -
5/23 10:30pm 263 10 G 14 68° 46% - - 47° 92.3° 64.2° - - -
5/23 10:20pm 261 10 G 13 68° 49% - - 48° 92.3° 64.2° - - -
5/23 10:10pm 263 12 G 15 68° 51% - - 49° 92.3° 64.2° - - -
5/23 10:00pm 258 13 G 18 68° 51% - - 50° 92.3° 64.2° - - -
5/23 9:50pm 262 13 G 16 69° 51% - - 50° 92.3° 64.2° - - -
5/23 9:40pm 261 13 G 18 69° 50% - - 50° 92.3° 64.2° - - -
5/23 9:30pm 258 13 G 17 69° 50% - - 50° 92.3° 64.2° - - -
5/23 9:20pm 259 13 G 17 71° 45% - - 48° 92.3° 64.2° - - -
5/23 9:10pm 263 13 G 16 72° 41% - - 47° 92.3° 64.2° - - -
5/23 9:00pm 266 12 G 17 72° 40% - - 47° 92.3° 64.2° - - -
5/23 8:50pm 266 11 G 15 72° 41% - - 47° 92.3° 64.2° - - -
5/23 8:40pm 266 11 G 15 72° 44% - - 49° 92.3° 64.2° - - -
5/23 8:30pm 263 12 G 16 72° 45% - - 49° 92.3° 64.2° - - -
5/23 8:20pm 261 13 G 18 72° 45% - - 49° 92.3° 64.2° - - -
5/23 8:10pm 260 14 G 19 73° 43% - - 49° 92.3° 64.2° - - -
5/23 8:00pm 257 14 G 20 73° 42% - - 49° 92.3° 64.2° - - -
5/23 7:50pm 256 15 G 19 74° 40% - - 48° 92.3° 64.2° - - -
5/23 7:40pm 254 16 G 21 75° 37% - - 47° 92.3° 64.2° - - -
5/23 7:30pm 255 15 G 20 76° 33% - - 45° 92.3° 64.2° - - -
5/23 7:20pm 252 15 G 21 77° 29% - - 43° 92.3° 64.2° - - -
5/23 7:10pm 253 15 G 20 78° 27% - - 41° 92.3° 64.2° - - -
5/23 7:00pm 253 15 G 20 79° 26% - - 41° 92.3° 64.2° - - -
5/23 6:50pm 253 15 G 23 80° 24% - - 40° 92.3° 64.2° - - -
5/23 6:40pm 251 15 G 22 81° 21% - - 38° 92.3° 64.2° - - -
5/23 6:30pm 254 15 G 22 82° 20% - - 37° 92.3° 64.2° - - -
5/23 6:20pm 253 15 G 21 82° 20% - - 37° 92.3° 64.2° - - -
5/23 6:10pm 251 16 G 22 83° 18% - - 34° 92.3° 64.2° - - -
5/23 6:00pm 263 15 G 20 83° 15% - - 31° 92.3° 64.2° - - -
5/23 5:50pm 272 16 G 24 84° 15% - - 31° 92.3° 64.2° - - -
5/23 5:40pm 260 14 G 22 84° 15% - - 31° 92.3° 64.2° - - -
5/23 5:30pm 265 17 G 25 84° 14% - - 30° 92.3° 64.2° - - -
5/23 5:20pm 268 16 G 27 84° 13% - - 28° 92.3° 64.2° - - -
5/23 5:10pm 268 16 G 25 85° 14% - - 30° 92.3° 64.2° - - -
5/23 5:00pm 259 16 G 24 84° 14% - - 30° 92.3° 64.2° - - -
5/23 4:50pm 263 16 G 24 84° 15% - - 32° 92.3° 64.2° - - -
5/23 4:40pm 265 17 G 27 84° 18% - - 36° 92.3° 64.2° - - -
5/23 4:30pm 260 18 G 24 84° 17% - - 35° 92.3° 64.2° - - -
5/23 4:20pm 256 19 G 28 84° 17% - - 35° 92.3° 64.2° - - -
5/23 4:10pm 258 17 G 26 85° 19% - - 38° 92.3° 64.2° - - -
5/23 4:00pm 261 17 G 23 85° 19% - - 38° 92.3° 64.2° - - -
5/23 3:50pm 257 18 G 26 86° 16% - - 34° 92.3° 64.2° - - -
5/23 3:40pm 265 19 G 26 86° 15% - - 32° 92.3° 64.2° - - -
5/23 3:30pm 253 16 G 23 87° 14% - - 31° 92.3° 64.2° - - -
5/23 3:20pm 245 20 G 27 87° 12% - - 28° 92.3° 64.2° - - -
5/23 3:10pm 242 19 G 28 87° 12% - - 28° 92.3° 64.2° - - -
5/23 3:00pm 245 21 G 29 87° 12% - - 28° 92.3° 64.2° - - -
5/23 2:50pm 254 18 G 25 87° 12% - - 29° 92.3° 64.2° - - -
5/23 2:40pm 255 15 G 22 89° 11% - - 29° 92.3° 64.2° - - -
5/23 2:30pm 268 15 G 23 88° 11% - - 28° 92.3° 64.2° - - -
5/23 2:20pm 290 10 G 19 89° 12% - - 30° 92.3° 64.2° - - -
5/23 2:10pm 0 6 G 12 91° 8% - - 22° 92.3° 64.2° - - -
5/23 2:00pm 331 6 G 12 90° 8% - - 20° 91.1° 64.2° - - -
5/23 1:50pm 106 9 G 17 90° 8% - - 20° 91.1° 64.2° - - -
5/23 1:40pm 111 10 G 17 90° 8% - - 20° 91.1° 64.2° - - -
5/23 1:30pm 81 8 G 17 90° 8% - - 21° 91.1° 64.2° - - -
5/23 1:20pm 72 7 G 12 90° 8% - - 21° 91.1° 64.2° - - -
5/23 1:10pm 36 6 G 15 90° 8% - - 22° 90.8° 64.2° - - -
5/23 1:00pm 2 7 G 12 89° 8% - - 21° 89.7° 64.2° - - -
5/23 12:50pm 66 10 G 18 89° 8% - - 21° 89.7° 64.2° - - -
5/23 12:40pm 37 9 G 20 89° 9% - - 22° 89.7° 64.2° - - -
5/23 12:30pm 21 6 G 12 88° 9% - - 21° 89.5° 64.2° - - -
5/23 12:20pm 78 9 G 16 89° 8% - - 21° 89.5° 64.2° - - -
5/23 12:10pm 56 6 G 14 88° 8% - - 20° 89° 64.2° - - -
5/23 12:00pm 64 11 G 18 88° 9% - - 21° 88.8° 64.2° - - -
5/23 11:50am 76 12 G 20 88° 9% - - 21° 88.8° 64.2° - - -
5/23 11:40am 72 8 G 16 88° 9% - - 21° 88.8° 64.2° - - -
5/23 11:30am 66 4 G 11 88° 9% - - 21° 88.8° 64.2° - - -
5/23 11:20am 87 11 G 16 87° 9% - - 21° 88.2° 64.2° - - -
5/23 11:10am 76 9 G 17 87° 9% - - 22° 88.2° 64.2° - - -
5/23 11:00am 69 7 G 17 87° 9% - - 22° 87.5° 64.2° - - -
5/23 10:50am 85 8 G 16 86° 10% - - 22° 87.4° 64.2° - - -
5/23 10:40am 104 8 G 13 87° 9% - - 22° 87.4° 64.2° - - -
5/23 10:30am 84 7 G 12 86° 10% - - 23° 87° 64.2° - - -
5/23 10:20am 110 7 G 12 86° 10% - - 23° 87° 64.2° - - -
5/23 10:10am 77 6 G 9 86° 10% - - 23° 86.6° 64.2° - - -
5/23 10:00am 101 6 G 11 85° 10% - - 24° 86.6° 64.2° - - -
5/23 9:50am 86 6 G 11 86° 11% - - 24° 86.6° 64.2° - - -
5/23 9:40am 100 6 G 9 85° 11% - - 25° 85.5° 64.2° - - -
5/23 9:30am 92 5 G 9 85° 12% - - 26° 85.5° 64.2° - - -
5/23 9:20am 91 6 G 10 83° 12% - - 26° 84.1° 64.2° - - -
5/23 9:10am 90 5 G 7 83° 14% - - 28° 83.4° 64.2° - - -
5/23 9:00am 79 4 G 6 83° 15% - - 30° 83.3° 64.2° - - -
5/23 8:50am 90 4 G 5 82° 16% - - 32° 82.8° 64.2° - - -
5/23 8:40am 86 3 G 5 82° 18% - - 35° 82.8° 64.2° - - -
5/23 8:30am 76 2 G 3 82° 20% - - 38° 82.6° 64.2° - - -
5/23 8:20am 75 1 G 2 82° 19% - - 36° 82.6° 64.2° - - -
5/23 8:10am 126 1 G 3 78° 21% - - 34° 80.4° 64.2° - - -
5/23 8:00am 94 3 G 3 76° 26% - - 38° 76.8° 64.2° - - -
5/23 7:50am 108 1 G 3 76° 26% - - 38° 76.8° 64.2° - - -
5/23 7:40am 95 1 G 3 75° 25% - - 37° 76.3° 64.2° - - -
5/23 7:30am 316 3 G 4 74° 24% - - 34° 74.8° 64.2° - - -
5/23 7:20am 315 4 G 5 73° 23% - - 33° 73.5° 64.2° - - -
5/23 7:10am 326 3 G 6 72° 22% - - 31° 73.4° 64.2° - - -
5/23 7:00am 300 5 G 6 71° 22% - - 30° 72.3° 64.2° - - -
5/23 6:50am 298 4 G 5 71° 20% - - 28° 72.3° 64.2° - - -
5/23 6:40am 289 3 G 4 70° 21% - - 28° 72.3° 64.2° - - -
5/23 6:30am 281 2 G 3 70° 21% - - 28° 72.3° 64.2° - - -
5/23 6:20am 85 1 G 3 69° 21% - - 28° 72.3° 64.2° - - -
5/23 6:10am 79 2 G 4 70° 20% - - 27° 72.3° 64.2° - - -
5/23 6:00am 58 2 G 3 70° 21% - - 28° 72.3° 64.2° - - -